sensor_id;sensor_type;location;lat;lon;timestamp;pressure;altitude;pressure_sealevel;temperature;humidity
22930;BME280;11630;42.660;23.292;2023-04-02T00:06:32;68602.92;;;9.68;85.56
22930;BME280;11630;42.660;23.292;2023-04-02T00:11:47;68601.01;;;9.65;87.15
22930;BME280;11630;42.660;23.292;2023-04-02T00:14:32;68604.28;;;9.68;87.47
22930;BME280;11630;42.660;23.292;2023-04-02T00:16:57;68605.63;;;9.68;87.51
22930;BME280;11630;42.660;23.292;2023-04-02T00:19:53;68591.48;;;9.55;87.66
22930;BME280;11630;42.660;23.292;2023-04-02T00:22:08;68583.08;;;9.46;87.24
22930;BME280;11630;42.660;23.292;2023-04-02T00:24:39;68583.08;;;9.51;86.60
22930;BME280;11630;42.660;23.292;2023-04-02T00:27:13;68583.91;;;9.56;86.26
22930;BME280;11630;42.660;23.292;2023-04-02T00:29:49;68602.09;;;9.66;85.35
22930;BME280;11630;42.660;23.292;2023-04-02T00:32:27;68606.73;;;9.72;85.56
22930;BME280;11630;42.660;23.292;2023-04-02T00:35:00;68628.99;;;9.90;87.36
22930;BME280;11630;42.660;23.292;2023-04-02T00:37:32;68599.91;;;9.64;85.72
22930;BME280;11630;42.660;23.292;2023-04-02T00:40:05;68598.30;;;9.65;87.11
22930;BME280;11630;42.660;23.292;2023-04-02T00:42:37;68596.94;;;9.65;88.19
22930;BME280;11630;42.660;23.292;2023-04-02T00:45:27;68593.66;;;9.57;88.39
22930;BME280;11630;42.660;23.292;2023-04-02T00:47:58;68586.88;;;9.52;87.43
22930;BME280;11630;42.660;23.292;2023-04-02T00:50:33;68590.13;;;9.53;88.20
22930;BME280;11630;42.660;23.292;2023-04-02T00:53:08;68577.09;;;9.46;88.71
22930;BME280;11630;42.660;23.292;2023-04-02T00:55:40;68589.86;;;9.54;88.05
22930;BME280;11630;42.660;23.292;2023-04-02T00:58:24;68576.00;;;9.42;87.82
22930;BME280;11630;42.660;23.292;2023-04-02T01:00:50;68579.55;;;9.49;86.60
22930;BME280;11630;42.660;23.292;2023-04-02T01:03:26;68590.13;;;9.55;86.39
22930;BME280;11630;42.660;23.292;2023-04-02T01:06:06;68588.50;;;9.51;87.45
22930;BME280;11630;42.660;23.292;2023-04-02T01:12:19;68615.16;;;9.83;87.62
22930;BME280;11630;42.660;23.292;2023-04-02T01:14:31;68593.39;;;9.53;86.65
22930;BME280;11630;42.660;23.292;2023-04-02T01:17:03;68591.22;;;9.56;84.92
22930;BME280;11630;42.660;23.292;2023-04-02T01:25:04;68607.52;;;9.71;83.32
22930;BME280;11630;42.660;23.292;2023-04-02T01:27:40;68609.70;;;9.73;83.59
22930;BME280;11630;42.660;23.292;2023-04-02T01:30:11;68612.98;;;9.76;82.44
22930;BME280;11630;42.660;23.292;2023-04-02T01:32:42;68608.08;;;9.72;84.08
22930;BME280;11630;42.660;23.292;2023-04-02T01:35:12;68604.02;;;9.69;83.54
22930;BME280;11630;42.660;23.292;2023-04-02T01:37:56;68605.38;;;9.72;82.40
22930;BME280;11630;42.660;23.292;2023-04-02T01:40:37;68618.14;;;9.82;81.98
22930;BME280;11630;42.660;23.292;2023-04-02T01:43:29;68609.98;;;9.77;81.99
22930;BME280;11630;42.660;23.292;2023-04-02T01:46:03;68624.09;;;9.85;81.39
22930;BME280;11630;42.660;23.292;2023-04-02T01:48:31;68633.88;;;9.89;80.98
22930;BME280;11630;42.660;23.292;2023-04-02T01:51:05;68632.27;;;9.93;80.28
22930;BME280;11630;42.660;23.292;2023-04-02T01:53:34;68628.47;;;9.94;80.64
22930;BME280;11630;42.660;23.292;2023-04-02T01:56:05;68626.57;;;9.91;80.20
22930;BME280;11630;42.660;23.292;2023-04-02T01:58:36;68624.39;;;9.87;81.07
22930;BME280;11630;42.660;23.292;2023-04-02T02:01:12;68626.01;;;9.86;81.12
22930;BME280;11630;42.660;23.292;2023-04-02T02:03:43;68629.81;;;9.89;81.29
22930;BME280;11630;42.660;23.292;2023-04-02T02:06:15;68630.61;;;9.89;81.18
22930;BME280;11630;42.660;23.292;2023-04-02T02:08:51;68609.45;;;9.79;81.50
22930;BME280;11630;42.660;23.292;2023-04-02T02:11:23;68620.58;;;9.83;80.97
22930;BME280;11630;42.660;23.292;2023-04-02T02:14:00;68616.25;;;9.84;80.93
22930;BME280;11630;42.660;23.292;2023-04-02T02:16:30;68625.48;;;9.93;81.71
22930;BME280;11630;42.660;23.292;2023-04-02T02:19:02;68634.20;;;9.98;81.98
22930;BME280;11630;42.660;23.292;2023-04-02T02:21:39;68633.65;;;9.97;81.69
22930;BME280;11630;42.660;23.292;2023-04-02T02:24:25;68642.61;;;10.02;81.02
22930;BME280;11630;42.660;23.292;2023-04-02T02:32:24;68641.25;;;10.02;81.64
22930;BME280;11630;42.660;23.292;2023-04-02T02:35:09;68625.22;;;9.91;81.78
22930;BME280;11630;42.660;23.292;2023-04-02T02:37:42;68635.27;;;9.99;81.90
22930;BME280;11630;42.660;23.292;2023-04-02T02:40:17;68635.25;;;9.96;81.99
22930;BME280;11630;42.660;23.292;2023-04-02T02:42:51;68613.52;;;9.79;82.12
22930;BME280;11630;42.660;23.292;2023-04-02T02:45:24;68605.08;;;9.70;81.53
22930;BME280;11630;42.660;23.292;2023-04-02T02:47:56;68598.83;;;9.63;82.00
22930;BME280;11630;42.660;23.292;2023-04-02T02:50:28;68594.22;;;9.60;83.45
22930;BME280;11630;42.660;23.292;2023-04-02T02:53:02;68605.11;;;9.73;80.47
22930;BME280;11630;42.660;23.292;2023-04-02T02:55:33;68613.24;;;9.78;80.43
22930;BME280;11630;42.660;23.292;2023-04-02T02:58:10;68624.39;;;9.89;79.41
22930;BME280;11630;42.660;23.292;2023-04-02T03:00:42;68624.92;;;9.87;79.80
22930;BME280;11630;42.660;23.292;2023-04-02T03:03:18;68614.60;;;9.80;80.46
22930;BME280;11630;42.660;23.292;2023-04-02T03:05:52;68625.48;;;9.90;79.94
22930;BME280;11630;42.660;23.292;2023-04-02T03:08:26;68611.06;;;9.76;80.22
22930;BME280;11630;42.660;23.292;2023-04-02T03:13:37;68597.47;;;9.63;81.42
22930;BME280;11630;42.660;23.292;2023-04-02T03:16:19;68600.20;;;9.66;81.38
22930;BME280;11630;42.660;23.292;2023-04-02T03:18:53;68608.61;;;9.72;80.31
22930;BME280;11630;42.660;23.292;2023-04-02T03:21:31;68618.14;;;9.82;80.87
22930;BME280;11630;42.660;23.292;2023-04-02T03:24:03;68611.89;;;9.80;82.58
22930;BME280;11630;42.660;23.292;2023-04-02T03:26:42;68605.38;;;9.72;84.04
22930;BME280;11630;42.660;23.292;2023-04-02T03:29:29;68599.95;;;9.69;82.11
22930;BME280;11630;42.660;23.292;2023-04-02T03:32:09;68608.61;;;9.70;82.84
22930;BME280;11630;42.660;23.292;2023-04-02T03:34:40;68597.20;;;9.62;82.31
22930;BME280;11630;42.660;23.292;2023-04-02T03:37:23;68593.13;;;9.59;82.71
22930;BME280;11630;42.660;23.292;2023-04-02T03:40:09;68590.69;;;9.58;82.54
22930;BME280;11630;42.660;23.292;2023-04-02T03:42:48;68606.46;;;9.73;80.97
22930;BME280;11630;42.660;23.292;2023-04-02T03:45:32;68618.41;;;9.84;79.63
22930;BME280;11630;42.660;23.292;2023-04-02T03:48:14;68616.78;;;9.82;79.80
22930;BME280;11630;42.660;23.292;2023-04-02T03:51:19;68622.20;;;9.82;80.37
22930;BME280;11630;42.660;23.292;2023-04-02T03:53:22;68612.42;;;9.78;80.18
22930;BME280;11630;42.660;23.292;2023-04-02T03:55:57;68620.84;;;9.82;79.42
22930;BME280;11630;42.660;23.292;2023-04-02T04:01:13;68618.96;;;9.84;78.72
22930;BME280;11630;42.660;23.292;2023-04-02T04:03:46;68621.91;;;9.81;79.58
22930;BME280;11630;42.660;23.292;2023-04-02T04:06:26;68605.64;;;9.73;80.44
22930;BME280;11630;42.660;23.292;2023-04-02T04:09:07;68597.77;;;9.65;80.82
22930;BME280;11630;42.660;23.292;2023-04-02T04:11:42;68626.00;;;9.83;79.31
22930;BME280;11630;42.660;23.292;2023-04-02T04:14:32;68612.16;;;9.77;79.92
22930;BME280;11630;42.660;23.292;2023-04-02T04:17:17;68619.49;;;9.82;79.71
22930;BME280;11630;42.660;23.292;2023-04-02T04:19:50;68611.63;;;9.81;79.34
22930;BME280;11630;42.660;23.292;2023-04-02T04:22:24;68641.25;;;10.02;79.87
22930;BME280;11630;42.660;23.292;2023-04-02T04:25:05;68642.08;;;10.01;79.09
22930;BME280;11630;42.660;23.292;2023-04-02T04:27:47;68641.81;;;10.02;80.29
22930;BME280;11630;42.660;23.292;2023-04-02T04:30:27;68644.80;;;10.09;83.27
22930;BME280;11630;42.660;23.292;2023-04-02T04:33:01;68621.65;;;9.82;87.50
22930;BME280;11630;42.660;23.292;2023-04-02T04:35:35;68584.97;;;9.49;91.77
22930;BME280;11630;42.660;23.292;2023-04-02T04:38:12;68466.00;;;8.40;99.13
22930;BME280;11630;42.660;23.292;2023-04-02T04:40:47;68447.83;;;8.25;100.00
22930;BME280;11630;42.660;23.292;2023-04-02T04:43:37;68408.47;;;7.90;100.00
22930;BME280;11630;42.660;23.292;2023-04-02T04:46:07;68437.50;;;8.13;100.00
22930;BME280;11630;42.660;23.292;2023-04-02T04:48:52;68440.80;;;8.21;100.00
22930;BME280;11630;42.660;23.292;2023-04-02T04:51:30;68395.17;;;7.79;100.00
22930;BME280;11630;42.660;23.292;2023-04-02T04:54:00;68423.94;;;8.08;100.00
22930;BME280;11630;42.660;23.292;2023-04-02T04:56:32;68406.03;;;7.89;100.00
22930;BME280;11630;42.660;23.292;2023-04-02T04:59:04;68432.88;;;8.10;100.00
22930;BME280;11630;42.660;23.292;2023-04-02T05:04:34;68470.92;;;8.50;100.00
22930;BME280;11630;42.660;23.292;2023-04-02T05:10:00;68457.61;;;8.34;100.00
22930;BME280;11630;42.660;23.292;2023-04-02T05:12:36;68417.42;;;8.00;100.00
22930;BME280;11630;42.660;23.292;2023-04-02T05:15:19;68431.52;;;8.05;100.00
22930;BME280;11630;42.660;23.292;2023-04-02T05:20:48;68434.27;;;8.15;100.00
22930;BME280;11630;42.660;23.292;2023-04-02T05:23:36;68449.75;;;8.31;100.00
22930;BME280;11630;42.660;23.292;2023-04-02T05:26:23;68517.88;;;8.87;100.00
22930;BME280;11630;42.660;23.292;2023-04-02T05:28:56;68511.91;;;8.86;100.00
22930;BME280;11630;42.660;23.292;2023-04-02T05:31:48;68538.80;;;9.10;100.00
22930;BME280;11630;42.660;23.292;2023-04-02T05:34:25;68536.63;;;9.08;100.00
22930;BME280;11630;42.660;23.292;2023-04-02T05:36:54;68557.55;;;9.28;100.00
22930;BME280;11630;42.660;23.292;2023-04-02T05:39:27;68569.22;;;9.35;100.00
22930;BME280;11630;42.660;23.292;2023-04-02T05:42:01;68589.59;;;9.52;100.00
22930;BME280;11630;42.660;23.292;2023-04-02T05:44:34;68595.58;;;9.60;100.00
22930;BME280;11630;42.660;23.292;2023-04-02T05:47:12;68610.80;;;9.79;99.14
22930;BME280;11630;42.660;23.292;2023-04-02T05:49:45;68630.91;;;9.95;98.87
22930;BME280;11630;42.660;23.292;2023-04-02T05:52:21;68608.91;;;9.76;98.28
22930;BME280;11630;42.660;23.292;2023-04-02T05:54:54;68735.89;;;10.88;100.00
22930;BME280;11630;42.660;23.292;2023-04-02T05:57:29;68912.05;;;12.50;100.00
22930;BME280;11630;42.660;23.292;2023-04-02T05:59:57;68747.07;;;11.05;100.00
22930;BME280;11630;42.660;23.292;2023-04-02T06:02:37;68833.09;;;11.78;97.28
22930;BME280;11630;42.660;23.292;2023-04-02T06:05:10;68752.50;;;11.07;93.71
22930;BME280;11630;42.660;23.292;2023-04-02T06:10:18;68720.92;;;10.73;94.49
22930;BME280;11630;42.660;23.292;2023-04-02T06:12:59;68764.20;;;11.14;96.40
22930;BME280;11630;42.660;23.292;2023-04-02T06:15:34;68913.42;;;12.50;97.57
22930;BME280;11630;42.660;23.292;2023-04-02T06:18:27;68902.53;;;12.40;88.56
22930;BME280;11630;42.660;23.292;2023-04-02T06:20:57;68821.37;;;11.69;89.14
22930;BME280;11630;42.660;23.292;2023-04-02T06:23:52;68840.42;;;11.81;86.76
22930;BME280;11630;42.660;23.292;2023-04-02T06:26:40;68887.28;;;12.27;84.71
22930;BME280;11630;42.660;23.292;2023-04-02T06:29:30;68836.08;;;11.80;85.12
22930;BME280;11630;42.660;23.292;2023-04-02T06:32:00;68803.96;;;11.58;87.22
22930;BME280;11630;42.660;23.292;2023-04-02T06:34:31;68888.38;;;12.30;84.78
22930;BME280;11630;42.660;23.292;2023-04-02T06:37:16;68812.12;;;11.60;87.15
22930;BME280;11630;42.660;23.292;2023-04-02T06:39:36;68886.45;;;12.29;82.52
22930;BME280;11630;42.660;23.292;2023-04-02T06:42:11;68871.20;;;12.11;83.52
22930;BME280;11630;42.660;23.292;2023-04-02T06:44:41;68801.73;;;11.41;86.88
22930;BME280;11630;42.660;23.292;2023-04-02T06:50:08;68839.06;;;11.84;86.05
22930;BME280;11630;42.660;23.292;2023-04-02T06:52:44;68901.17;;;12.40;84.79
22930;BME280;11630;42.660;23.292;2023-04-02T06:55:29;68906.34;;;12.46;80.65
22930;BME280;11630;42.660;23.292;2023-04-02T06:57:57;68906.90;;;12.49;79.39
22930;BME280;11630;42.660;23.292;2023-04-02T07:00:40;68883.18;;;12.22;81.33
22930;BME280;11630;42.660;23.292;2023-04-02T07:03:23;68952.13;;;12.81;79.08
22930;BME280;11630;42.660;23.292;2023-04-02T07:05:55;68957.05;;;12.90;77.65
22930;BME280;11630;42.660;23.292;2023-04-02T07:08:25;68891.09;;;12.32;78.77
22930;BME280;11630;42.660;23.292;2023-04-02T07:10:56;68862.49;;;12.00;79.65
22930;BME280;11630;42.660;23.292;2023-04-02T07:13:27;68897.63;;;12.33;78.74
22930;BME280;11630;42.660;23.292;2023-04-02T07:15:58;68891.92;;;12.34;79.19
22930;BME280;11630;42.660;23.292;2023-04-02T07:18:35;68886.45;;;12.29;80.04
22930;BME280;11630;42.660;23.292;2023-04-02T07:21:05;68912.08;;;12.53;73.81
22930;BME280;11630;42.660;23.292;2023-04-02T07:23:36;68920.77;;;12.58;70.07
22930;BME280;11630;42.660;23.292;2023-04-02T07:26:10;68930.58;;;12.72;67.74
22930;BME280;11630;42.660;23.292;2023-04-02T07:28:38;68939.05;;;12.76;67.63
22930;BME280;11630;42.660;23.292;2023-04-02T07:31:20;68937.69;;;12.74;66.95
22930;BME280;11630;42.660;23.292;2023-04-02T07:33:48;68960.03;;;12.94;66.87
22930;BME280;11630;42.660;23.292;2023-04-02T07:36:23;68974.77;;;13.05;64.68
22930;BME280;11630;42.660;23.292;2023-04-02T07:38:55;68965.77;;;13.03;63.69
22930;BME280;11630;42.660;23.292;2023-04-02T07:41:26;68951.58;;;12.85;65.20
22930;BME280;11630;42.660;23.292;2023-04-02T07:43:57;68987.86;;;13.19;65.20
22930;BME280;11630;42.660;23.292;2023-04-02T07:46:29;68987.56;;;13.20;63.49
22930;BME280;11630;42.660;23.292;2023-04-02T07:48:59;69005.83;;;13.31;62.89
22930;BME280;11630;42.660;23.292;2023-04-02T07:51:30;69037.20;;;13.66;61.22
22930;BME280;11630;42.660;23.292;2023-04-02T07:54:01;69075.66;;;13.94;61.17
22930;BME280;11630;42.660;23.292;2023-04-02T07:56:32;69105.42;;;14.25;59.95
22930;BME280;11630;42.660;23.292;2023-04-02T07:59:01;69096.69;;;14.17;59.37
22930;BME280;11630;42.660;23.292;2023-04-02T08:01:32;69133.52;;;14.52;57.49
22930;BME280;11630;42.660;23.292;2023-04-02T08:04:04;69177.48;;;14.88;56.76
22930;BME280;11630;42.660;23.292;2023-04-02T08:06:35;69141.45;;;14.53;58.11
22930;BME280;11630;42.660;23.292;2023-04-02T08:09:05;69059.28;;;13.84;58.01
22930;BME280;11630;42.660;23.292;2023-04-02T08:11:36;69054.65;;;13.77;59.96
22930;BME280;11630;42.660;23.292;2023-04-02T08:14:07;69026.03;;;13.52;61.02
22930;BME280;11630;42.660;23.292;2023-04-02T08:16:51;69015.66;;;13.45;61.98
22930;BME280;11630;42.660;23.292;2023-04-02T08:19:21;69021.92;;;13.49;61.30
22930;BME280;11630;42.660;23.292;2023-04-02T08:21:51;69046.20;;;13.70;60.94
22930;BME280;11630;42.660;23.292;2023-04-02T08:24:22;69044.02;;;13.71;60.26
22930;BME280;11630;42.660;23.292;2023-04-02T08:26:53;69053.30;;;13.82;60.41
22930;BME280;11630;42.660;23.292;2023-04-02T08:29:24;69044.01;;;13.73;59.80
22930;BME280;11630;42.660;23.292;2023-04-02T08:31:55;69089.05;;;14.10;59.42
22930;BME280;11630;42.660;23.292;2023-04-02T08:34:26;69081.66;;;13.97;60.67
22930;BME280;11630;42.660;23.292;2023-04-02T08:37:00;69070.73;;;13.97;59.64
22930;BME280;11630;42.660;23.292;2023-04-02T08:39:31;69081.39;;;14.03;59.12
22930;BME280;11630;42.660;23.292;2023-04-02T08:42:27;69091.23;;;14.17;58.76
22930;BME280;11630;42.660;23.292;2023-04-02T08:45:05;69184.02;;;14.97;56.67
22930;BME280;11630;42.660;23.292;2023-04-02T08:47:35;69202.59;;;15.14;57.50
22930;BME280;11630;42.660;23.292;2023-04-02T08:52:59;69163.01;;;14.74;54.28
22930;BME280;11630;42.660;23.292;2023-04-02T08:55:38;69221.45;;;15.32;52.97
22930;BME280;11630;42.660;23.292;2023-04-02T09:00:58;69293.31;;;15.91;49.09
22930;BME280;11630;42.660;23.292;2023-04-02T09:03:52;69328.84;;;16.23;48.82
22930;BME280;11630;42.660;23.292;2023-04-02T09:06:03;69392.81;;;16.89;47.41
22930;BME280;11630;42.660;23.292;2023-04-02T09:08:35;69507.78;;;17.86;46.40
22930;BME280;11630;42.660;23.292;2023-04-02T09:11:23;69456.87;;;17.42;43.79
22930;BME280;11630;42.660;23.292;2023-04-02T09:13:58;69441.80;;;17.32;44.15
22930;BME280;11630;42.660;23.292;2023-04-02T09:16:54;69452.49;;;17.36;44.09
22930;BME280;11630;42.660;23.292;2023-04-02T09:19:19;69479.59;;;17.62;43.82
22930;BME280;11630;42.660;23.292;2023-04-02T09:24:35;69498.17;;;17.83;42.22
22930;BME280;11630;42.660;23.292;2023-04-02T09:27:18;69443.42;;;17.36;42.57
22930;BME280;11630;42.660;23.292;2023-04-02T09:30:04;69334.05;;;16.32;44.10
22930;BME280;11630;42.660;23.292;2023-04-02T09:32:49;69261.33;;;15.68;46.75
22930;BME280;11630;42.660;23.292;2023-04-02T09:35:23;69273.65;;;15.73;47.84
22930;BME280;11630;42.660;23.292;2023-04-02T09:38:27;69272.55;;;15.72;48.42
22930;BME280;11630;42.660;23.292;2023-04-02T09:40:59;69372.08;;;16.58;46.39
22930;BME280;11630;42.660;23.292;2023-04-02T09:43:37;69470.54;;;17.57;44.92
22930;BME280;11630;42.660;23.292;2023-04-02T09:46:21;69340.58;;;16.45;45.05
22930;BME280;11630;42.660;23.292;2023-04-02T09:48:58;69428.11;;;17.17;44.77
22930;BME280;11630;42.660;23.292;2023-04-02T09:51:31;69483.95;;;17.66;43.29
22930;BME280;11630;42.660;23.292;2023-04-02T09:54:05;69497.64;;;17.78;43.11
22930;BME280;11630;42.660;23.292;2023-04-02T09:56:37;69325.55;;;16.25;43.17
22930;BME280;11630;42.660;23.292;2023-04-02T09:59:18;69289.48;;;15.90;44.21
22930;BME280;11630;42.660;23.292;2023-04-02T10:01:58;69305.34;;;16.02;44.29
22930;BME280;11630;42.660;23.292;2023-04-02T10:04:37;69368.77;;;16.62;43.53
22930;BME280;11630;42.660;23.292;2023-04-02T10:07:09;69366.29;;;16.64;43.41
22930;BME280;11630;42.660;23.292;2023-04-02T10:09:39;69382.97;;;16.83;44.53
22930;BME280;11630;42.660;23.292;2023-04-02T10:12:11;69364.67;;;16.60;43.54
22930;BME280;11630;42.660;23.292;2023-04-02T10:14:43;69455.75;;;17.46;42.42
22930;BME280;11630;42.660;23.292;2023-04-02T10:17:16;69493.77;;;17.82;41.69
22930;BME280;11630;42.660;23.292;2023-04-02T10:19:51;69502.00;;;17.87;41.21
22930;BME280;11630;42.660;23.292;2023-04-02T10:22:27;69558.70;;;18.35;39.71
22930;BME280;11630;42.660;23.292;2023-04-02T10:24:51;69593.20;;;18.68;39.86
22930;BME280;11630;42.660;23.292;2023-04-02T10:27:33;69533.52;;;18.07;40.26
22930;BME280;11630;42.660;23.292;2023-04-02T10:33:06;69606.08;;;18.79;39.57
22930;BME280;11630;42.660;23.292;2023-04-02T10:35:59;69693.52;;;19.57;39.48
22930;BME280;11630;42.660;23.292;2023-04-02T10:39:05;69736.55;;;19.95;37.69
22930;BME280;11630;42.660;23.292;2023-04-02T10:41:38;69562.52;;;18.41;38.57
22930;BME280;11630;42.660;23.292;2023-04-02T10:47:03;69535.44;;;18.10;42.02
22930;BME280;11630;42.660;23.292;2023-04-02T10:49:47;69536.80;;;18.12;41.56
22930;BME280;11630;42.660;23.292;2023-04-02T10:52:20;69514.63;;;17.88;40.77
22930;BME280;11630;42.660;23.292;2023-04-02T10:54:52;69437.44;;;17.28;41.76
22930;BME280;11630;42.660;23.292;2023-04-02T10:57:35;69434.66;;;17.26;45.38
22930;BME280;11630;42.660;23.292;2023-04-02T11:00:17;69393.92;;;16.88;45.72
22930;BME280;11630;42.660;23.292;2023-04-02T11:03:03;69457.70;;;17.39;45.07
22930;BME280;11630;42.660;23.292;2023-04-02T11:05:48;69584.17;;;18.56;42.06
22930;BME280;11630;42.660;23.292;2023-04-02T11:08:24;69687.49;;;19.46;41.29
22930;BME280;11630;42.660;23.292;2023-04-02T11:10:58;69658.73;;;19.19;41.00
22930;BME280;11630;42.660;23.292;2023-04-02T11:13:38;69632.95;;;18.98;43.30
22930;BME280;11630;42.660;23.292;2023-04-02T11:16:07;69590.80;;;18.53;43.03
22930;BME280;11630;42.660;23.292;2023-04-02T11:18:38;69477.10;;;17.63;44.52
22930;BME280;11630;42.660;23.292;2023-04-02T11:24:00;69358.92;;;16.58;47.21
22930;BME280;11630;42.660;23.292;2023-04-02T11:26:41;69416.91;;;17.03;46.58
22930;BME280;11630;42.660;23.292;2023-04-02T11:29:14;69409.77;;;17.04;45.87
22930;BME280;11630;42.660;23.292;2023-04-02T11:31:44;69508.36;;;17.79;45.51
22930;BME280;11630;42.660;23.292;2023-04-02T11:40:00;69643.91;;;19.13;43.39
22930;BME280;11630;42.660;23.292;2023-04-02T11:42:33;69570.21;;;18.43;42.49
22930;BME280;11630;42.660;23.292;2023-04-02T11:50:39;69543.37;;;18.21;42.18
22930;BME280;11630;42.660;23.292;2023-04-02T12:01:32;69764.55;;;20.20;40.70
22930;BME280;11630;42.660;23.292;2023-04-02T12:04:09;69659.52;;;19.26;40.43
22930;BME280;11630;42.660;23.292;2023-04-02T12:09:27;69670.77;;;19.35;41.14
22930;BME280;11630;42.660;23.292;2023-04-02T12:12:14;69581.96;;;18.59;41.80
22930;BME280;11630;42.660;23.292;2023-04-02T12:17:33;69508.05;;;17.85;42.50
22930;BME280;11630;42.660;23.292;2023-04-02T12:22:55;69509.64;;;17.99;42.10
22930;BME280;11630;42.660;23.292;2023-04-02T12:25:30;69458.80;;;17.40;42.75
22930;BME280;11630;42.660;23.292;2023-04-02T12:28:13;69472.47;;;17.55;43.06
22930;BME280;11630;42.660;23.292;2023-04-02T12:30:42;69448.11;;;17.27;43.35
22930;BME280;11630;42.660;23.292;2023-04-02T12:33:29;69425.09;;;17.18;43.37
22930;BME280;11630;42.660;23.292;2023-04-02T12:36:02;69497.64;;;17.78;41.60
22930;BME280;11630;42.660;23.292;2023-04-02T12:38:41;69576.48;;;18.52;40.56
22930;BME280;11630;42.660;23.292;2023-04-02T12:41:24;69631.59;;;18.93;39.67
22930;BME280;11630;42.660;23.292;2023-04-02T12:44:02;69707.49;;;19.66;39.39
22930;BME280;11630;42.660;23.292;2023-04-02T12:46:33;69814.84;;;20.49;37.81
22930;BME280;11630;42.660;23.292;2023-04-02T12:49:07;69760.41;;;20.17;36.67
22930;BME280;11630;42.660;23.292;2023-04-02T12:51:39;69813.63;;;20.63;36.96
22930;BME280;11630;42.660;23.292;2023-04-02T12:54:14;69907.81;;;21.45;34.77
22930;BME280;11630;42.660;23.292;2023-04-02T12:56:48;70027.55;;;22.58;33.89
22930;BME280;11630;42.660;23.292;2023-04-02T12:59:26;69930.67;;;21.57;34.29
22930;BME280;11630;42.660;23.292;2023-04-02T13:01:59;69835.03;;;20.85;35.04
22930;BME280;11630;42.660;23.292;2023-04-02T13:04:29;69832.34;;;20.75;36.06
22930;BME280;11630;42.660;23.292;2023-04-02T13:07:01;69795.80;;;20.48;35.76
22930;BME280;11630;42.660;23.292;2023-04-02T13:09:33;69966.39;;;21.86;33.87
22930;BME280;11630;42.660;23.292;2023-04-02T13:12:03;70072.38;;;22.95;33.16
22930;BME280;11630;42.660;23.292;2023-04-02T13:14:33;69996.44;;;22.39;32.85
22930;BME280;11630;42.660;23.292;2023-04-02T13:17:34;69789.23;;;20.40;34.95
22930;BME280;11630;42.660;23.292;2023-04-02T13:19:37;69644.70;;;19.15;36.38
22930;BME280;11630;42.660;23.292;2023-04-02T13:22:26;69617.00;;;18.91;37.27
22930;BME280;11630;42.660;23.292;2023-04-02T13:24:40;69536.27;;;18.07;37.78
22930;BME280;11630;42.660;23.292;2023-04-02T13:27:11;69473.01;;;17.58;38.79
22930;BME280;11630;42.660;23.292;2023-04-02T13:29:41;69518.42;;;18.02;39.24
22930;BME280;11630;42.660;23.292;2023-04-02T13:32:12;69483.64;;;17.74;41.18
22930;BME280;11630;42.660;23.292;2023-04-02T13:34:43;69508.31;;;17.86;39.78
22930;BME280;11630;42.660;23.292;2023-04-02T13:37:14;69513.22;;;17.96;40.48
22930;BME280;11630;42.660;23.292;2023-04-02T13:39:45;69443.99;;;17.34;39.76
22930;BME280;11630;42.660;23.292;2023-04-02T13:42:16;69434.67;;;17.23;39.74
22930;BME280;11630;42.660;23.292;2023-04-02T13:44:47;69392.56;;;16.85;40.15
22930;BME280;11630;42.660;23.292;2023-04-02T13:47:18;69364.91;;;16.66;40.74
22930;BME280;11630;42.660;23.292;2023-04-02T13:49:49;69364.92;;;16.64;40.26
22930;BME280;11630;42.660;23.292;2023-04-02T13:52:20;69374.50;;;16.71;40.04
22930;BME280;11630;42.660;23.292;2023-04-02T13:54:52;69381.91;;;16.69;40.54
22930;BME280;11630;42.660;23.292;2023-04-02T13:57:22;69391.20;;;16.83;40.51
22930;BME280;11630;42.660;23.292;2023-04-02T13:59:53;69399.41;;;16.88;40.56
22930;BME280;11630;42.660;23.292;2023-04-02T14:02:26;69394.48;;;16.81;39.61
22930;BME280;11630;42.660;23.292;2023-04-02T14:05:11;69367.11;;;16.66;39.95
22930;BME280;11630;42.660;23.292;2023-04-02T14:07:45;69376.96;;;16.75;40.08
22930;BME280;11630;42.660;23.292;2023-04-02T14:13:55;69371.50;;;16.65;40.24
22930;BME280;11630;42.660;23.292;2023-04-02T14:15:42;69370.42;;;16.59;40.96
22930;BME280;11630;42.660;23.292;2023-04-02T14:18:31;69358.66;;;16.52;40.95
22930;BME280;11630;42.660;23.292;2023-04-02T14:21:07;69335.69;;;16.33;41.06
22930;BME280;11630;42.660;23.292;2023-04-02T14:29:44;69384.91;;;16.76;40.85
22930;BME280;11630;42.660;23.292;2023-04-02T14:32:25;69450.55;;;17.40;39.71
22930;BME280;11630;42.660;23.292;2023-04-02T14:35:12;69466.99;;;17.48;39.13
22930;BME280;11630;42.660;23.292;2023-04-02T14:38:02;69432.47;;;17.26;39.25
22930;BME280;11630;42.660;23.292;2023-04-02T14:43:30;69347.44;;;16.43;40.19
22930;BME280;11630;42.660;23.292;2023-04-02T14:46:06;69363.30;;;16.60;40.37
22930;BME280;11630;42.660;23.292;2023-04-02T14:56:56;69337.05;;;16.36;41.35
22930;BME280;11630;42.660;23.292;2023-04-02T15:05:02;69341.14;;;16.41;41.11
22930;BME280;11630;42.660;23.292;2023-04-02T15:08:04;69332.41;;;16.33;42.07
22930;BME280;11630;42.660;23.292;2023-04-02T15:10:27;69393.39;;;16.85;40.02
22930;BME280;11630;42.660;23.292;2023-04-02T15:12:57;69357.81;;;16.60;40.19
22930;BME280;11630;42.660;23.292;2023-04-02T15:15:48;69355.92;;;16.52;40.08
22930;BME280;11630;42.660;23.292;2023-04-02T15:18:04;69362.77;;;16.54;39.99
22930;BME280;11630;42.660;23.292;2023-04-02T15:20:42;69371.50;;;16.65;40.67
22930;BME280;11630;42.660;23.292;2023-04-02T15:26:19;69335.15;;;16.33;39.37
22930;BME280;11630;42.660;23.292;2023-04-02T15:29:03;69333.21;;;16.35;39.86
22930;BME280;11630;42.660;23.292;2023-04-02T15:31:34;69326.93;;;16.23;39.92